createdAt,value
2018-04-01T00:00:55.598Z,1.45
2018-04-01T00:03:22.547Z,1.45
2018-04-01T00:05:50.303Z,1.55
2018-04-01T00:08:17.271Z,1.65
2018-04-01T00:10:45.005Z,1.62
2018-04-01T00:13:11.995Z,1.60
2018-04-01T00:15:38.952Z,1.33
2018-04-01T00:18:05.945Z,1.83
2018-04-01T00:20:32.899Z,1.55
2018-04-01T00:23:00.644Z,1.73
2018-04-01T00:25:27.671Z,1.50
2018-04-01T00:27:54.655Z,1.35
2018-04-01T00:30:22.381Z,1.85
2018-04-01T00:32:49.470Z,1.60
2018-04-01T00:35:17.200Z,1.85
2018-04-01T00:37:44.185Z,1.92
2018-04-01T00:40:12.440Z,1.80
2018-04-01T00:42:39.578Z,2.45
2018-04-01T00:45:06.535Z,2.47
2018-04-01T00:47:34.268Z,2.00
2018-04-01T00:50:01.248Z,2.20
2018-04-01T00:52:28.261Z,2.33
2018-04-01T00:54:55.245Z,2.47
2018-04-01T00:57:22.964Z,2.20
2018-04-01T00:59:49.950Z,2.97
2018-04-01T01:02:17.859Z,2.37
2018-04-01T01:04:44.835Z,2.42
2018-04-01T01:07:11.788Z,2.30
2018-04-01T01:09:38.772Z,2.05
2018-04-01T01:12:05.843Z,2.50
2018-04-01T01:14:32.838Z,2.47
2018-04-01T01:16:59.837Z,2.72
2018-04-01T01:19:26.820Z,2.12
2018-04-01T01:21:53.785Z,2.50
2018-04-01T01:24:21.514Z,2.60
2018-04-01T01:26:49.247Z,2.58
2018-04-01T01:29:16.200Z,2.33
2018-04-01T01:31:43.167Z,2.40
2018-04-01T01:34:10.288Z,2.20
2018-04-01T01:36:37.237Z,1.80
2018-04-01T01:39:04.202Z,2.40
2018-04-01T01:41:31.184Z,2.35
2018-04-01T01:43:58.918Z,2.78
2018-04-01T01:46:25.920Z,2.40
2018-04-01T01:48:52.879Z,2.12
2018-04-01T01:51:20.483Z,2.00
2018-04-01T01:53:47.482Z,2.22
2018-04-01T01:56:14.459Z,2.62
2018-04-01T01:58:41.414Z,2.08
2018-04-01T02:01:08.411Z,2.05
2018-04-01T02:03:35.369Z,2.10
2018-04-01T02:06:02.355Z,3.30
2018-04-01T02:08:30.119Z,1.95
2018-04-01T02:10:57.859Z,1.87
2018-04-01T02:13:24.835Z,2.40
2018-04-01T02:15:52.539Z,1.98
2018-04-01T02:18:19.519Z,2.33
2018-04-01T02:20:46.484Z,1.70
2018-04-01T02:23:14.215Z,2.08
2018-04-01T02:25:41.183Z,2.22
2018-04-01T02:28:08.916Z,2.03
2018-04-01T02:30:35.888Z,2.10
2018-04-01T02:33:03.773Z,1.62
2018-04-01T02:35:30.728Z,1.92
2018-04-01T02:37:57.720Z,1.70
2018-04-01T02:40:24.688Z,2.00
2018-04-01T02:42:52.424Z,2.00
2018-04-01T02:45:19.383Z,2.25
2018-04-01T02:47:46.335Z,2.37
2018-04-01T02:50:13.924Z,2.03
2018-04-01T02:52:40.868Z,2.20
2018-04-01T02:55:07.875Z,1.62
2018-04-01T02:57:34.828Z,1.40
2018-04-01T03:00:02.572Z,1.45
2018-04-01T03:02:29.533Z,1.60
2018-04-01T03:04:56.533Z,2.00
2018-04-01T03:07:23.469Z,2.12
2018-04-01T03:09:50.451Z,1.70
2018-04-01T03:12:17.416Z,1.77
2018-04-01T03:14:45.171Z,2.33
2018-04-01T03:17:12.108Z,1.98
2018-04-01T03:19:39.079Z,1.65
2018-04-01T03:22:06.884Z,1.83
2018-04-01T03:24:33.811Z,2.00
2018-04-01T03:27:00.790Z,2.25
2018-04-01T03:29:27.727Z,1.62
2018-04-01T03:31:54.703Z,1.98
2018-04-01T03:34:21.688Z,2.42
2018-04-01T03:36:48.670Z,2.20
2018-04-01T03:39:15.633Z,2.65
2018-04-01T03:41:42.599Z,2.00
2018-04-01T03:44:10.319Z,2.45
2018-04-01T03:46:37.294Z,2.65
2018-04-01T03:49:04.296Z,2.20
2018-04-01T03:51:32.074Z,2.47
2018-04-01T03:53:59.047Z,2.35
2018-04-01T03:56:26.115Z,2.67
2018-04-01T03:58:53.084Z,2.55
2018-04-01T04:01:20.056Z,2.95
2018-04-01T04:03:47.035Z,2.75
2018-04-01T04:06:14.756Z,2.58
2018-04-01T04:08:41.732Z,3.03
2018-04-01T04:11:09.476Z,2.55
2018-04-01T04:13:36.439Z,2.42
2018-04-01T04:16:03.451Z,2.45
2018-04-01T04:18:30.409Z,2.17
2018-04-01T04:20:57.363Z,2.60
2018-04-01T04:23:24.323Z,2.03
2018-04-01T04:25:52.067Z,2.55
2018-04-01T04:28:19.062Z,3.50
2018-04-01T04:30:46.056Z,2.65
2018-04-01T04:33:13.000Z,2.20
2018-04-01T04:35:39.978Z,2.67
2018-04-01T04:38:07.830Z,2.47
2018-04-01T04:40:35.552Z,2.75
2018-04-01T04:43:02.524Z,2.85
2018-04-01T04:45:29.556Z,2.92
2018-04-01T04:47:56.517Z,2.42
2018-04-01T04:50:23.546Z,3.45
2018-04-01T04:52:50.444Z,3.15
2018-04-01T04:55:17.405Z,2.62
2018-04-01T04:57:44.363Z,3.25
2018-04-01T05:00:12.153Z,3.30
2018-04-01T05:02:39.916Z,2.90
2018-04-01T05:05:06.869Z,2.80
2018-04-01T05:07:33.867Z,2.78
2018-04-01T05:10:00.791Z,3.97
2018-04-01T05:12:27.757Z,3.42
2018-04-01T05:14:54.704Z,3.50
2018-04-01T05:17:21.668Z,3.15
2018-04-01T05:19:48.660Z,3.42
2018-04-01T05:22:16.481Z,3.72
2018-04-01T05:24:43.424Z,4.62
2018-04-01T05:27:11.152Z,4.00
2018-04-01T05:29:38.137Z,4.80
2018-04-01T05:32:05.120Z,4.35
2018-04-01T05:34:32.180Z,4.55
2018-04-01T05:36:59.119Z,4.20
2018-04-01T05:39:26.090Z,4.78
2018-04-01T05:41:53.041Z,4.80
2018-04-01T05:44:20.011Z,3.90
2018-04-01T05:46:46.947Z,4.78
2018-04-01T05:49:13.940Z,4.22
2018-04-01T05:51:40.907Z,4.37
2018-04-01T05:54:07.868Z,4.25
2018-04-01T05:56:35.733Z,4.30
2018-04-01T05:59:02.689Z,3.83
2018-04-01T06:01:29.671Z,4.27
2018-04-01T06:03:57.410Z,4.80
2018-04-01T06:06:24.352Z,4.13
2018-04-01T06:08:51.352Z,4.78
2018-04-01T06:11:18.320Z,4.93
2018-04-01T06:13:45.288Z,5.15
2018-04-01T06:16:13.083Z,4.85
2018-04-01T06:18:40.077Z,4.75
2018-04-01T06:21:07.825Z,6.00
2018-04-01T06:23:34.774Z,5.55
2018-04-01T06:26:01.886Z,5.72
2018-04-01T06:28:28.839Z,5.62
2018-04-01T06:30:55.823Z,6.28
2018-04-01T06:33:22.774Z,5.53
2018-04-01T06:35:49.756Z,7.00
2018-04-01T06:38:17.466Z,6.65
2018-04-01T06:40:44.428Z,6.57
2018-04-01T06:43:11.928Z,7.55
2018-04-01T06:45:38.874Z,6.97
2018-04-01T06:48:05.847Z,8.30
2018-04-01T06:50:32.810Z,7.85
2018-04-01T06:52:59.905Z,8.00
2018-04-01T06:55:26.852Z,7.90
2018-04-01T06:57:53.852Z,8.18
2018-04-01T07:00:20.849Z,5.60
2018-04-01T07:02:48.569Z,4.97
2018-04-01T07:05:15.516Z,2.00
2018-04-01T07:07:42.464Z,3.33
2018-04-01T07:10:09.928Z,3.45
2018-04-01T07:12:37.673Z,3.50
2018-04-01T07:15:04.636Z,3.87
2018-04-01T07:17:32.408Z,3.35
2018-04-01T07:19:59.331Z,3.20
2018-04-01T07:22:26.296Z,2.95
2018-04-01T07:24:54.109Z,3.37
2018-04-01T07:27:21.078Z,3.30
2018-04-01T07:29:48.216Z,3.70
2018-04-01T07:32:15.164Z,4.10
2018-04-01T07:34:42.127Z,4.30
2018-04-01T07:37:09.071Z,5.40
2018-04-01T07:39:36.807Z,5.43
2018-04-01T07:42:03.751Z,5.53
2018-04-01T07:44:30.700Z,5.57
2018-04-01T07:46:57.676Z,6.50
2018-04-01T07:49:25.392Z,5.65
2018-04-01T07:51:53.223Z,6.15
2018-04-01T07:54:20.186Z,6.10
2018-04-01T07:56:47.156Z,6.95
2018-04-01T07:59:14.982Z,7.10
2018-04-01T08:01:41.956Z,7.80
2018-04-01T08:04:08.916Z,7.40
2018-04-01T08:06:35.923Z,7.72
2018-04-01T08:09:02.875Z,8.90
2018-04-01T08:11:29.845Z,9.30
2018-04-01T08:13:56.791Z,9.00
2018-04-01T08:16:23.807Z,9.45
2018-04-01T08:18:50.787Z,9.88
2018-04-01T08:21:17.805Z,8.80
2018-04-01T08:23:44.752Z,10.55
2018-04-01T08:26:11.713Z,9.82
2018-04-01T08:28:38.680Z,9.40
2018-04-01T08:31:05.648Z,10.40
2018-04-01T08:33:33.376Z,9.93
2018-04-01T08:36:00.361Z,9.77
2018-04-01T08:38:27.308Z,8.75
2018-04-01T08:40:54.305Z,8.68
2018-04-01T08:43:21.294Z,9.25
2018-04-01T08:45:48.278Z,9.65
2018-04-01T08:48:15.259Z,9.18
2018-04-01T08:50:42.205Z,8.32
2018-04-01T08:53:09.978Z,8.55
2018-04-01T08:55:38.036Z,8.38
2018-04-01T08:58:05.871Z,8.38
2018-04-01T09:00:32.827Z,8.82
2018-04-01T09:02:59.798Z,7.68
2018-04-01T09:05:27.652Z,8.45
2018-04-01T09:07:54.678Z,7.53
2018-04-01T09:10:21.632Z,7.95
2018-04-01T09:12:48.608Z,8.98
2018-04-01T09:15:15.748Z,9.25
2018-04-01T09:17:43.500Z,9.85
2018-04-01T09:20:10.461Z,7.78
2018-04-01T09:22:38.206Z,7.80
2018-04-01T09:25:05.973Z,8.40
2018-04-01T09:27:32.966Z,8.50
2018-04-01T09:30:00.680Z,8.80
2018-04-01T09:32:28.410Z,8.13
2018-04-01T09:34:55.381Z,8.60
2018-04-01T09:37:22.359Z,8.18
2018-04-01T09:39:49.405Z,8.77
2018-04-01T09:42:16.363Z,7.72
2018-04-01T09:44:43.364Z,8.40
2018-04-01T09:47:10.343Z,7.67
2018-04-01T09:49:37.326Z,7.90
2018-04-01T09:52:04.310Z,8.70
2018-04-01T09:54:31.284Z,8.30
2018-04-01T09:56:58.323Z,7.63
2018-04-01T09:59:25.927Z,21.20
2018-04-01T10:01:53.409Z,8.67
2018-04-01T10:04:21.727Z,9.47
2018-04-01T10:06:49.173Z,8.90
2018-04-01T10:09:16.626Z,8.20
2018-04-01T10:11:44.098Z,8.40
2018-04-01T10:14:11.551Z,8.25
2018-04-01T10:16:39.050Z,9.68
2018-04-01T10:19:06.502Z,8.35
2018-04-01T10:21:34.031Z,9.35
2018-04-01T10:24:01.487Z,9.13
2018-04-01T10:26:28.966Z,9.95
2018-04-01T10:28:56.419Z,10.27
2018-04-01T10:31:23.917Z,10.15
2018-04-01T10:33:52.130Z,11.00
2018-04-01T10:36:19.652Z,11.10
2018-04-01T10:38:47.899Z,9.45
2018-04-01T10:41:15.362Z,9.43
2018-04-01T10:43:43.615Z,8.98
2018-04-01T10:46:11.064Z,7.20
2018-04-01T10:48:38.523Z,6.60
2018-04-01T10:51:05.965Z,7.10
2018-04-01T10:53:33.419Z,6.78
2018-04-01T10:56:00.375Z,7.12
2018-04-01T10:58:27.368Z,7.25
2018-04-01T11:00:55.082Z,5.20
2018-04-01T11:03:22.059Z,3.25
2018-04-01T11:05:49.023Z,3.22
2018-04-01T11:08:16.809Z,2.80
2018-04-01T11:10:43.749Z,2.62
2018-04-01T11:13:10.711Z,3.30
2018-04-01T11:15:37.696Z,3.25
2018-04-01T11:18:04.662Z,3.00
2018-04-01T11:20:32.424Z,3.22
2018-04-01T11:23:00.137Z,3.10
2018-04-01T11:25:27.162Z,3.78
2018-04-01T11:27:54.285Z,3.50
2018-04-01T11:30:22.032Z,4.32
2018-04-01T11:32:49.011Z,4.00
2018-04-01T11:35:16.000Z,4.57
2018-04-01T11:37:43.003Z,5.28
2018-04-01T11:40:09.979Z,4.07
2018-04-01T11:42:36.941Z,4.40
2018-04-01T11:45:03.933Z,4.30
2018-04-01T11:47:30.916Z,4.43
2018-04-01T11:49:58.640Z,4.35
2018-04-01T11:52:26.271Z,4.37
2018-04-01T11:54:54.082Z,4.30
2018-04-01T11:57:21.052Z,4.47
2018-04-01T11:59:48.015Z,3.28
2018-04-01T12:02:15.851Z,4.12
2018-04-01T12:04:42.800Z,4.12
2018-04-01T12:07:09.783Z,3.67
2018-04-01T12:09:38.190Z,3.30
2018-04-01T12:12:05.160Z,3.40
2018-04-01T12:14:32.179Z,3.33
2018-04-01T12:17:01.277Z,3.67
2018-04-01T12:19:28.232Z,4.05
2018-04-01T12:21:55.199Z,4.43
2018-04-01T12:24:22.137Z,3.90
2018-04-01T12:26:49.134Z,4.80
2018-04-01T12:29:16.114Z,4.85
2018-04-01T12:31:43.091Z,4.12
2018-04-01T12:34:10.056Z,4.25
2018-04-01T12:36:37.040Z,3.65
2018-04-01T12:39:04.162Z,3.60
2018-04-01T12:41:31.154Z,3.87
2018-04-01T12:43:58.156Z,2.87
2018-04-01T12:46:26.054Z,3.45
2018-04-01T12:48:53.012Z,3.22
2018-04-01T12:51:19.988Z,3.50
2018-04-01T12:53:46.976Z,4.00
2018-04-01T12:56:14.065Z,3.87
2018-04-01T12:58:41.790Z,3.70
2018-04-01T13:01:08.756Z,4.10
2018-04-01T13:03:35.758Z,4.67
2018-04-01T13:06:02.720Z,4.65
2018-04-01T13:08:29.700Z,4.10
2018-04-01T13:10:56.723Z,4.43
2018-04-01T13:13:23.705Z,4.53
2018-04-01T13:15:50.705Z,3.87
2018-04-01T13:18:17.652Z,4.45
2018-04-01T13:20:44.622Z,3.40
2018-04-01T13:23:11.579Z,4.12
2018-04-01T13:25:38.555Z,3.83
2018-04-01T13:28:05.601Z,3.75
2018-04-01T13:30:32.581Z,3.83
2018-04-01T13:32:59.534Z,4.00
2018-04-01T13:35:26.509Z,3.70
2018-04-01T13:37:53.472Z,3.65
2018-04-01T13:40:21.223Z,4.72
2018-04-01T13:42:48.292Z,5.25
2018-04-01T13:45:16.026Z,5.90
2018-04-01T13:47:43.887Z,6.05
2018-04-01T13:50:10.914Z,6.50
2018-04-01T13:52:37.860Z,6.60
2018-04-01T13:55:04.859Z,6.80
2018-04-01T13:57:31.922Z,7.05
2018-04-01T13:59:58.885Z,7.15
2018-04-01T14:02:25.859Z,7.10
2018-04-01T14:04:52.847Z,6.62
2018-04-01T14:07:19.827Z,6.75
2018-04-01T14:09:46.786Z,6.90
2018-04-01T14:12:13.771Z,6.62
2018-04-01T14:14:40.754Z,8.27
2018-04-01T14:17:07.736Z,7.30
2018-04-01T14:19:34.716Z,7.07
2018-04-01T14:22:02.437Z,6.60
2018-04-01T14:24:29.417Z,6.85
2018-04-01T14:26:56.410Z,6.45
2018-04-01T14:29:23.366Z,6.90
2018-04-01T14:31:50.346Z,6.10
2018-04-01T14:34:17.313Z,5.40
2018-04-01T14:36:44.409Z,6.30
2018-04-01T14:39:12.159Z,6.00
2018-04-01T14:41:39.144Z,7.00
2018-04-01T14:44:06.953Z,6.07
2018-04-01T14:46:33.991Z,5.93
2018-04-01T14:49:00.940Z,6.30
2018-04-01T14:51:27.971Z,5.60
2018-04-01T14:53:54.991Z,6.55
2018-04-01T14:56:21.974Z,6.97
2018-04-01T14:58:49.845Z,6.15
2018-04-01T15:01:16.821Z,6.55
2018-04-01T15:03:43.812Z,6.70
2018-04-01T15:06:10.789Z,5.47
2018-04-01T15:08:37.884Z,6.75
2018-04-01T15:11:05.616Z,7.28
2018-04-01T15:13:32.719Z,7.45
2018-04-01T15:15:59.759Z,6.47
2018-04-01T15:18:26.723Z,6.90
2018-04-01T15:20:53.693Z,5.90
2018-04-01T15:23:20.663Z,5.90
2018-04-01T15:25:48.462Z,6.00
2018-04-01T15:28:15.419Z,5.95
2018-04-01T15:30:42.468Z,6.30
2018-04-01T15:33:09.458Z,6.60
2018-04-01T15:35:36.434Z,6.18
2018-04-01T15:38:03.393Z,7.50
2018-04-01T15:40:30.452Z,7.45
2018-04-01T15:42:57.399Z,8.27
2018-04-01T15:45:24.415Z,7.90
2018-04-01T15:47:51.392Z,6.70
2018-04-01T15:50:18.359Z,5.93
2018-04-01T15:52:45.341Z,5.10
2018-04-01T15:55:12.324Z,4.55
2018-04-01T15:57:39.298Z,4.07
2018-04-01T16:00:06.289Z,4.30
2018-04-01T16:02:33.258Z,5.03
2018-04-01T16:05:00.294Z,6.12
2018-04-01T16:07:27.219Z,6.72
2018-04-01T16:09:54.176Z,6.72
2018-04-01T16:12:21.139Z,7.40
2018-04-01T16:14:48.124Z,7.62
2018-04-01T16:17:15.864Z,7.70
2018-04-01T16:19:42.825Z,7.10
2018-04-01T16:22:10.289Z,7.50
2018-04-01T16:24:38.591Z,7.30
2018-04-01T16:27:05.668Z,8.20
2018-04-01T16:29:32.613Z,8.43
2018-04-01T16:31:59.588Z,7.97
2018-04-01T16:34:26.562Z,9.75
2018-04-01T16:36:54.266Z,9.35
2018-04-01T16:39:22.136Z,10.77
2018-04-01T16:41:49.108Z,10.75
2018-04-01T16:44:16.859Z,9.70
2018-04-01T16:46:43.918Z,10.35
2018-04-01T16:49:11.664Z,9.45
2018-04-01T16:51:38.616Z,10.35
2018-04-01T16:54:05.677Z,11.38
2018-04-01T16:56:32.669Z,9.90
2018-04-01T16:58:59.660Z,9.82
2018-04-01T17:01:26.621Z,11.25
2018-04-01T17:03:54.353Z,9.98
2018-04-01T17:06:21.309Z,11.73
2018-04-01T17:08:48.355Z,10.60
2018-04-01T17:11:15.319Z,10.63
2018-04-01T17:13:43.060Z,11.60
2018-04-01T17:16:10.132Z,12.37
2018-04-01T17:18:37.895Z,11.52
2018-04-01T17:21:05.677Z,10.93
2018-04-01T17:23:32.674Z,11.35
2018-04-01T17:26:00.405Z,11.30
2018-04-01T17:28:27.363Z,11.75
2018-04-01T17:30:54.335Z,11.85
2018-04-01T17:33:21.338Z,11.93
2018-04-01T17:35:48.315Z,11.32
2018-04-01T17:38:15.275Z,11.07
2018-04-01T17:40:43.024Z,12.15
2018-04-01T17:43:10.005Z,12.05
2018-04-01T17:45:37.004Z,11.30
2018-04-01T17:48:03.957Z,12.37
2018-04-01T17:50:30.952Z,11.40
2018-04-01T17:52:57.990Z,12.73
2018-04-01T17:55:24.967Z,12.90
2018-04-01T17:57:51.918Z,14.35
2018-04-01T18:00:18.906Z,13.73
2018-04-01T18:02:46.625Z,13.13
2018-04-01T18:05:13.611Z,14.18
2018-04-01T18:07:41.344Z,13.93
2018-04-01T18:10:08.320Z,14.63
2018-04-01T18:12:36.052Z,13.55
2018-04-01T18:15:03.019Z,13.90
2018-04-01T18:17:30.757Z,15.05
2018-04-01T18:19:57.725Z,16.33
2018-04-01T18:22:24.711Z,14.73
2018-04-01T18:24:51.696Z,14.48
2018-04-01T18:27:18.672Z,15.63
2018-04-01T18:29:46.426Z,14.10
2018-04-01T18:32:13.404Z,15.35
2018-04-01T18:34:40.373Z,13.40
2018-04-01T18:37:07.363Z,14.13
2018-04-01T18:39:34.475Z,14.80
2018-04-01T18:42:01.452Z,13.48
2018-04-01T18:44:29.183Z,14.70
2018-04-01T18:46:56.194Z,15.10
2018-04-01T18:49:23.141Z,15.98
2018-04-01T18:51:50.116Z,16.98
2018-04-01T18:54:17.072Z,16.20
2018-04-01T18:56:44.043Z,15.95
2018-04-01T18:59:11.767Z,15.93
2018-04-01T19:01:39.516Z,15.63
2018-04-01T19:04:06.492Z,17.05
2018-04-01T19:06:33.455Z,15.80
2018-04-01T19:09:01.203Z,16.25
2018-04-01T19:11:28.179Z,16.00
2018-04-01T19:13:55.927Z,16.60
2018-04-01T19:16:24.193Z,15.63
2018-04-01T19:18:51.704Z,17.00
2018-04-01T19:21:19.163Z,16.90
2018-04-01T19:23:46.626Z,17.48
2018-04-01T19:26:14.065Z,18.55
2018-04-01T19:28:41.589Z,18.48
2018-04-01T19:31:08.979Z,18.27
2018-04-01T19:33:36.472Z,17.87
2018-04-01T19:36:03.907Z,18.55
2018-04-01T19:38:31.392Z,18.35
2018-04-01T19:40:58.864Z,18.98
2018-04-01T19:43:26.453Z,18.17
2018-04-01T19:45:53.913Z,15.55
2018-04-01T19:48:21.404Z,16.92
2018-04-01T19:50:48.950Z,17.12
2018-04-01T19:53:16.488Z,13.43
2018-04-01T19:55:43.964Z,15.07
2018-04-01T19:58:11.418Z,15.43
2018-04-01T20:00:38.900Z,14.57
2018-04-01T20:03:06.361Z,14.32
2018-04-01T20:18:28.885Z,13.45
2018-04-01T20:20:56.491Z,16.08
2018-04-01T20:23:23.950Z,13.90
2018-04-01T20:25:51.409Z,15.70
2018-04-01T20:28:18.918Z,15.90
2018-04-01T20:30:46.413Z,14.13
2018-04-01T20:33:13.899Z,14.30
2018-04-01T20:35:41.372Z,14.87
2018-04-01T20:38:08.855Z,13.80
2018-04-01T20:40:36.333Z,15.32
2018-04-01T20:43:04.560Z,14.02
2018-04-01T20:45:32.123Z,14.38
2018-04-01T20:47:59.570Z,13.98
2018-04-01T20:50:27.053Z,15.05
2018-04-01T20:52:55.363Z,14.63
2018-04-01T20:55:22.839Z,14.85
2018-04-01T20:57:50.326Z,15.52
2018-04-01T21:00:17.796Z,14.10
2018-04-01T21:02:45.252Z,16.42
2018-04-01T21:05:12.696Z,16.00
2018-04-01T21:07:40.166Z,15.20
2018-04-01T21:10:07.662Z,15.60
2018-04-01T21:12:35.140Z,14.07
2018-04-01T21:15:02.591Z,14.73
2018-04-01T21:17:30.065Z,14.63
2018-04-01T21:19:57.542Z,15.35
2018-04-01T21:22:25.051Z,15.15
2018-04-01T21:24:52.508Z,15.50
2018-04-01T21:27:20.015Z,16.50
2018-04-01T21:29:47.507Z,16.75
2018-04-01T21:32:14.973Z,17.48
2018-04-01T21:34:42.525Z,15.18
2018-04-01T21:37:10.756Z,16.35
2018-04-01T21:39:38.231Z,16.12
2018-04-01T21:42:06.432Z,16.75
2018-04-01T21:44:33.895Z,16.60
2018-04-01T21:47:01.354Z,17.67
2018-04-01T21:49:28.841Z,17.45
2018-04-01T21:51:56.277Z,16.27
2018-04-01T21:54:23.761Z,15.63
2018-04-01T21:56:51.224Z,18.02
2018-04-01T21:59:18.680Z,18.85
2018-04-01T22:01:46.242Z,16.45
2018-04-01T22:04:13.707Z,18.27
2018-04-01T22:06:41.937Z,18.12
2018-04-01T22:09:09.404Z,18.08
2018-04-01T22:11:37.604Z,17.12
2018-04-01T22:14:05.103Z,19.55
2018-04-01T22:16:32.565Z,18.58
2018-04-01T22:19:01.780Z,19.73
2018-04-01T22:21:29.208Z,19.85
2018-04-01T22:23:56.667Z,19.08
2018-04-01T22:26:24.139Z,20.25
2018-04-01T22:28:51.595Z,19.37
2018-04-01T22:31:19.063Z,22.58
2018-04-01T22:33:46.564Z,20.10
2018-04-01T22:36:14.037Z,22.10
2018-04-01T22:38:41.500Z,21.98
2018-04-01T22:41:08.993Z,21.00
2018-04-01T22:43:36.451Z,21.98
2018-04-01T22:46:04.135Z,22.50
2018-04-01T22:48:31.587Z,21.15
2018-04-01T22:50:59.048Z,20.23
2018-04-01T22:53:26.514Z,21.83
2018-04-01T22:55:54.091Z,21.85
2018-04-01T22:58:22.301Z,21.75
2018-04-01T23:00:49.765Z,22.37
2018-04-01T23:03:17.204Z,21.83
2018-04-01T23:05:44.686Z,21.87
2018-04-01T23:08:12.121Z,22.08
2018-04-01T23:10:39.577Z,23.08
2018-04-01T23:13:07.037Z,23.73
2018-04-01T23:15:34.512Z,23.95
2018-04-01T23:18:01.969Z,21.62
2018-04-01T23:20:29.420Z,24.85
2018-04-01T23:22:56.887Z,25.30
2018-04-01T23:25:24.324Z,23.23
2018-04-01T23:27:51.804Z,23.77
2018-04-01T23:30:19.249Z,27.40
2018-04-01T23:32:46.705Z,26.25
2018-04-01T23:35:14.248Z,25.52
2018-04-01T23:37:41.736Z,25.52
2018-04-01T23:40:09.177Z,23.10
2018-04-01T23:42:36.699Z,25.75
2018-04-01T23:45:04.137Z,24.77
2018-04-01T23:47:31.616Z,25.70
2018-04-01T23:49:59.116Z,25.12
2018-04-01T23:52:26.566Z,24.58
2018-04-01T23:54:54.040Z,25.98
2018-04-01T23:57:21.502Z,28.00
2018-04-01T23:59:49.719Z,24.90
